createdAt,value
2022-10-19T00:02:00.957Z,100661.91
2022-10-19T00:05:02.533Z,100649.97
2022-10-19T00:08:04.099Z,100648.00
2022-10-19T00:11:05.740Z,100644.69
2022-10-19T00:14:08.642Z,100652.16
2022-10-19T00:17:10.077Z,100639.41
2022-10-19T00:20:12.043Z,100643.72
2022-10-19T00:23:13.628Z,100642.03
2022-10-19T00:26:15.313Z,100644.84
2022-10-19T00:29:17.606Z,100642.44
2022-10-19T00:32:19.130Z,100644.41
2022-10-19T00:35:20.575Z,100638.81
2022-10-19T00:38:22.279Z,100636.69
2022-10-19T00:41:28.288Z,100644.59
2022-10-19T00:44:29.628Z,100643.63
2022-10-19T00:47:31.761Z,100642.72
2022-10-19T00:50:33.267Z,100641.91
2022-10-19T00:53:35.618Z,100645.53
2022-10-19T00:56:40.949Z,100647.78
2022-10-19T00:59:44.373Z,100646.66
2022-10-19T01:02:46.187Z,100654.53
2022-10-19T01:05:47.829Z,100655.16
2022-10-19T01:08:49.227Z,100650.53
2022-10-19T01:12:35.237Z,100650.97
2022-10-19T01:15:58.515Z,100652.41
2022-10-19T01:19:09.075Z,100650.81
2022-10-19T01:22:48.007Z,100653.84
2022-10-19T01:26:08.250Z,100650.44
2022-10-19T01:29:31.683Z,100648.50
2022-10-19T01:32:48.333Z,100648.31
2022-10-19T01:36:02.066Z,100643.97
2022-10-19T01:39:13.220Z,100635.09
2022-10-19T01:42:33.275Z,100646.88
2022-10-19T01:45:44.518Z,100637.19
2022-10-19T01:48:55.043Z,100638.09
2022-10-19T01:52:02.211Z,100628.78
2022-10-19T01:55:04.674Z,100629.66
2022-10-19T01:58:09.705Z,100630.22
2022-10-19T02:01:15.218Z,100630.44
2022-10-19T02:04:19.457Z,100634.06
2022-10-19T02:07:22.796Z,100629.88
2022-10-19T02:10:25.539Z,100634.84
2022-10-19T02:13:29.234Z,100636.31
2022-10-19T02:16:40.603Z,100635.78
2022-10-19T02:19:42.999Z,100637.94
2022-10-19T02:22:44.718Z,100632.19
2022-10-19T02:25:46.462Z,100633.72
2022-10-19T02:28:49.200Z,100631.19
2022-10-19T02:31:51.259Z,100616.47
2022-10-19T02:34:52.740Z,100620.13
2022-10-19T02:37:57.928Z,100614.03
2022-10-19T02:41:06.420Z,100608.78
2022-10-19T02:44:17.014Z,100611.78
2022-10-19T02:47:24.176Z,100608.34
2022-10-19T02:50:25.771Z,100608.16
2022-10-19T02:53:27.194Z,100599.25
2022-10-19T02:56:28.832Z,100599.63
2022-10-19T02:59:30.256Z,100593.94
2022-10-19T03:02:31.706Z,100581.84
2022-10-19T03:05:33.138Z,100588.28
2022-10-19T03:08:34.626Z,100596.28
2022-10-19T03:11:36.128Z,100593.66
2022-10-19T03:14:37.517Z,100591.66
2022-10-19T03:17:38.923Z,100595.31
2022-10-19T03:20:40.314Z,100584.28
2022-10-19T03:23:41.881Z,100586.13
2022-10-19T03:26:43.371Z,100586.97
2022-10-19T03:29:44.811Z,100586.81
2022-10-19T03:32:46.226Z,100579.41
2022-10-19T03:35:47.761Z,100578.91
2022-10-19T03:38:56.805Z,100575.91
2022-10-19T03:41:58.227Z,100576.41
2022-10-19T03:44:59.671Z,100572.06
2022-10-19T03:48:01.083Z,100572.53
2022-10-19T03:51:05.593Z,100567.53
2022-10-19T03:54:08.615Z,100578.13
2022-10-19T03:57:10.450Z,100572.38
2022-10-19T04:00:12.552Z,100574.25
2022-10-19T04:03:13.901Z,100573.63
2022-10-19T04:06:21.192Z,100577.22
2022-10-19T04:09:23.906Z,100584.63
2022-10-19T04:12:25.303Z,100576.00
2022-10-19T04:15:26.696Z,100574.22
2022-10-19T04:18:28.143Z,100572.38
2022-10-19T04:21:32.104Z,100571.91
2022-10-19T04:24:33.580Z,100574.84
2022-10-19T04:27:35.165Z,100577.34
2022-10-19T04:30:36.756Z,100564.00
2022-10-19T04:33:39.253Z,100566.63
2022-10-19T04:36:40.704Z,100568.94
2022-10-19T04:39:43.348Z,100562.03
2022-10-19T04:42:44.765Z,100567.25
2022-10-19T04:45:46.198Z,100565.47
2022-10-19T04:48:48.980Z,100564.28
2022-10-19T04:51:50.403Z,100571.25
2022-10-19T04:54:51.781Z,100567.69
2022-10-19T04:57:53.165Z,100566.44
2022-10-19T05:00:54.596Z,100565.84
2022-10-19T05:03:58.582Z,100564.22
2022-10-19T05:07:00.201Z,100577.25
2022-10-19T05:10:01.759Z,100577.25
2022-10-19T05:13:03.535Z,100573.81
2022-10-19T05:16:07.060Z,100567.44
2022-10-19T05:19:14.692Z,100561.44
2022-10-19T05:22:16.112Z,100560.41
2022-10-19T05:25:17.653Z,100558.44
2022-10-19T05:28:19.041Z,100553.84
2022-10-19T05:31:20.664Z,100552.88
2022-10-19T05:34:22.104Z,100544.13
2022-10-19T05:37:23.647Z,100546.69
2022-10-19T05:40:25.224Z,100546.50
2022-10-19T05:43:26.606Z,100551.63
2022-10-19T05:46:29.636Z,100545.94
2022-10-19T05:49:31.083Z,100552.25
2022-10-19T05:52:32.541Z,100553.22
2022-10-19T05:55:35.586Z,100554.75
2022-10-19T05:58:37.034Z,100555.69
2022-10-19T06:01:38.506Z,100548.91
2022-10-19T06:04:39.990Z,100552.97
2022-10-19T06:07:41.512Z,100550.97
2022-10-19T06:10:43.929Z,100550.31
2022-10-19T06:13:47.304Z,100549.91
2022-10-19T06:16:48.683Z,100554.38
2022-10-19T06:19:50.109Z,100551.28
2022-10-19T06:22:51.504Z,100556.75
2022-10-19T06:25:53.020Z,100551.66
2022-10-19T06:28:56.678Z,100555.44
2022-10-19T06:32:00.185Z,100557.56
2022-10-19T06:35:01.584Z,100569.16
2022-10-19T06:38:02.958Z,100558.44
2022-10-19T06:41:04.725Z,100558.44
2022-10-19T06:44:06.119Z,100568.50
2022-10-19T06:47:07.551Z,100565.22
2022-10-19T06:50:09.629Z,100568.09
2022-10-19T06:53:11.570Z,100571.88
2022-10-19T06:56:13.177Z,100572.22
2022-10-19T06:59:15.023Z,100589.16
2022-10-19T07:02:16.603Z,100577.78
2022-10-19T07:05:18.116Z,100580.56
2022-10-19T07:08:19.760Z,100574.13
2022-10-19T07:11:22.427Z,100577.22
2022-10-19T07:14:28.603Z,100572.31
2022-10-19T07:17:30.059Z,100568.81
2022-10-19T07:20:31.493Z,100561.91
2022-10-19T07:23:34.462Z,100563.78
2022-10-19T07:26:35.968Z,100569.09
2022-10-19T07:29:37.389Z,100566.44
2022-10-19T07:32:39.124Z,100563.28
2022-10-19T07:35:42.501Z,100567.84
2022-10-19T07:38:43.966Z,100561.00
2022-10-19T07:41:45.697Z,100561.84
2022-10-19T07:44:47.099Z,100554.59
2022-10-19T07:47:48.595Z,100557.41
2022-10-19T07:50:50.353Z,100559.69
2022-10-19T07:53:52.243Z,100556.28
2022-10-19T07:56:53.765Z,100562.19
2022-10-19T07:59:55.306Z,100563.19
2022-10-19T08:03:31.225Z,100569.41
2022-10-19T08:06:19.302Z,100563.47
2022-10-19T08:09:47.160Z,100559.22
2022-10-19T08:12:43.029Z,100557.72
2022-10-19T08:15:44.500Z,100553.28
2022-10-19T08:18:46.666Z,100560.41
2022-10-19T08:21:48.404Z,100564.78
2022-10-19T08:24:49.855Z,100559.88
2022-10-19T08:27:51.239Z,100566.75
2022-10-19T08:30:57.898Z,100564.03
2022-10-19T08:33:59.502Z,100567.03
2022-10-19T08:37:06.815Z,100565.31
2022-10-19T08:40:24.029Z,100558.09
2022-10-19T08:43:38.685Z,100559.53
2022-10-19T08:46:54.776Z,100554.91
2022-10-19T08:49:58.518Z,100551.28
2022-10-19T08:53:20.696Z,100552.16
2022-10-19T08:56:51.403Z,100547.03
2022-10-19T09:00:02.772Z,100555.78
2022-10-19T09:03:37.407Z,100547.00
2022-10-19T09:06:50.834Z,100545.69
2022-10-19T09:10:13.271Z,100544.03
2022-10-19T09:13:17.838Z,100536.28
2022-10-19T09:16:20.275Z,100536.13
2022-10-19T09:19:26.201Z,100534.16
2022-10-19T09:22:34.939Z,100537.59
2022-10-19T09:25:38.817Z,100536.78
2022-10-19T09:28:54.926Z,100531.63
2022-10-19T09:31:59.495Z,100534.13
2022-10-19T09:35:04.293Z,100528.69
2022-10-19T09:38:07.669Z,100527.84
2022-10-19T09:41:18.867Z,100529.50
2022-10-19T09:44:20.519Z,100520.59
2022-10-19T09:47:40.270Z,100526.53
2022-10-19T09:50:44.727Z,100512.00
2022-10-19T09:53:56.023Z,100512.00
2022-10-19T09:56:57.510Z,100517.16
2022-10-19T09:59:59.012Z,100509.47
2022-10-19T10:03:00.788Z,100516.59
2022-10-19T10:06:05.819Z,100516.72
2022-10-19T10:09:07.341Z,100513.78
2022-10-19T10:12:09.616Z,100511.34
2022-10-19T10:15:17.844Z,100503.78
2022-10-19T10:18:19.520Z,100501.78
2022-10-19T10:21:25.898Z,100505.09
2022-10-19T10:24:30.644Z,100508.06
2022-10-19T10:27:36.920Z,100502.53
2022-10-19T10:30:38.631Z,100507.06
2022-10-19T10:33:45.124Z,100513.34
2022-10-19T10:36:51.259Z,100511.97
2022-10-19T10:39:56.842Z,100507.53
2022-10-19T10:43:06.808Z,100504.00
2022-10-19T10:46:16.950Z,100500.28
2022-10-19T10:49:25.840Z,100497.03
2022-10-19T10:52:31.341Z,100498.16
2022-10-19T10:55:34.276Z,100500.78
2022-10-19T10:58:43.700Z,100496.16
2022-10-19T11:02:11.414Z,100488.59
2022-10-19T11:05:45.259Z,100485.28
2022-10-19T11:08:52.407Z,100477.03
2022-10-19T11:11:56.079Z,100476.88
2022-10-19T11:15:06.548Z,100471.69
2022-10-19T11:18:16.764Z,100463.84
2022-10-19T11:21:34.198Z,100463.56
2022-10-19T11:24:48.640Z,100459.91
2022-10-19T11:27:56.044Z,100438.81
2022-10-19T11:31:16.348Z,100445.69
2022-10-19T11:34:25.930Z,100436.03
2022-10-19T11:38:18.306Z,100430.63
2022-10-19T11:41:35.829Z,100416.00
2022-10-19T11:44:55.911Z,100412.03
2022-10-19T11:48:29.051Z,100409.81
2022-10-19T11:52:13.973Z,100404.22
2022-10-19T11:55:57.286Z,100387.09
2022-10-19T11:59:29.238Z,100372.84
2022-10-19T12:02:33.878Z,100363.88
2022-10-19T12:05:48.528Z,100350.53
2022-10-19T12:09:11.250Z,100352.47
2022-10-19T12:12:32.328Z,100339.41
2022-10-19T12:15:50.419Z,100331.78
2022-10-19T12:18:55.729Z,100330.06
2022-10-19T12:22:01.481Z,100317.97
2022-10-19T12:25:04.478Z,100314.47
2022-10-19T12:28:05.875Z,100306.28
2022-10-19T12:31:10.692Z,100299.00
2022-10-19T12:34:36.697Z,100297.03
2022-10-19T12:37:47.770Z,100294.28
2022-10-19T12:41:00.291Z,100282.59
2022-10-19T12:44:06.658Z,100284.97
2022-10-19T12:47:28.400Z,100286.03
2022-10-19T12:50:49.955Z,100280.88
2022-10-19T12:53:51.397Z,100280.78
2022-10-19T12:56:55.100Z,100272.69
2022-10-19T12:59:59.966Z,100269.41
2022-10-19T13:03:16.001Z,100261.25
2022-10-19T13:06:23.471Z,100256.63
2022-10-19T13:09:46.880Z,100249.19
2022-10-19T13:12:49.514Z,100236.88
2022-10-19T13:15:52.417Z,100243.81
2022-10-19T13:19:00.086Z,100237.88
2022-10-19T13:22:01.592Z,100239.13
2022-10-19T13:25:31.472Z,100234.66
2022-10-19T13:28:37.719Z,100223.75
2022-10-19T13:31:39.532Z,100220.16
2022-10-19T13:34:41.204Z,100210.88
2022-10-19T13:37:43.572Z,100216.28
2022-10-19T13:41:15.620Z,100204.00
2022-10-19T13:44:22.123Z,100192.41
2022-10-19T13:50:57.847Z,100193.66
2022-10-19T13:54:06.264Z,100194.72
2022-10-19T13:57:26.435Z,100184.91
2022-10-19T14:00:57.195Z,100184.28
2022-10-19T14:04:30.454Z,100185.75
2022-10-19T14:08:01.063Z,100178.59
2022-10-19T14:11:13.148Z,100177.63
2022-10-19T14:14:15.935Z,100178.59
2022-10-19T14:17:21.050Z,100169.44
2022-10-19T14:20:34.486Z,100171.50
2022-10-19T14:23:39.993Z,100163.31
2022-10-19T14:26:41.639Z,100170.00
2022-10-19T14:29:46.496Z,100164.88
2022-10-19T14:32:48.390Z,100166.03
2022-10-19T14:35:50.479Z,100155.03
2022-10-19T14:38:55.836Z,100156.72
2022-10-19T14:42:00.480Z,100159.56
2022-10-19T14:45:12.055Z,100149.91
2022-10-19T14:48:18.049Z,100149.72
2022-10-19T14:51:39.254Z,100142.31
2022-10-19T14:54:44.971Z,100138.03
2022-10-19T14:57:50.169Z,100135.75
2022-10-19T15:00:53.753Z,100143.16
2022-10-19T15:03:55.822Z,100143.19
2022-10-19T15:06:59.732Z,100140.69
2022-10-19T15:10:03.683Z,100135.75
2022-10-19T15:13:07.142Z,100145.56
2022-10-19T15:16:29.698Z,100146.84
2022-10-19T15:19:49.429Z,100151.75
2022-10-19T15:22:50.977Z,100148.03
2022-10-19T15:25:59.754Z,100142.13
2022-10-19T15:29:10.327Z,100138.00
2022-10-19T15:32:35.306Z,100144.34
2022-10-19T15:35:39.649Z,100139.97
2022-10-19T15:38:41.119Z,100141.13
2022-10-19T15:41:42.650Z,100131.72
2022-10-19T15:44:44.517Z,100136.97
2022-10-19T15:48:26.138Z,100140.09
2022-10-19T15:51:27.553Z,100134.25
2022-10-19T15:54:29.022Z,100127.47
2022-10-19T15:57:31.738Z,100120.22
2022-10-19T16:00:33.829Z,100122.84
2022-10-19T16:03:35.256Z,100118.97
2022-10-19T16:06:39.614Z,100127.09
2022-10-19T16:09:41.031Z,100127.41
2022-10-19T16:12:42.735Z,100126.97
2022-10-19T16:15:44.163Z,100124.84
2022-10-19T16:18:45.550Z,100131.22
2022-10-19T16:21:50.304Z,100126.69
2022-10-19T16:24:51.903Z,100124.69
2022-10-19T16:27:53.316Z,100111.75
2022-10-19T16:30:55.637Z,100106.31
2022-10-19T16:33:57.197Z,100106.75
2022-10-19T16:37:01.490Z,100111.56
2022-10-19T16:40:06.335Z,100100.47
2022-10-19T16:43:07.638Z,100099.09
2022-10-19T16:46:09.074Z,100100.53
2022-10-19T16:49:10.589Z,100116.59
2022-10-19T16:52:15.321Z,100112.91
2022-10-19T16:55:16.877Z,100119.25
2022-10-19T16:58:18.398Z,100124.88
2022-10-19T17:01:20.017Z,100117.19
2022-10-19T17:04:22.056Z,100116.72
2022-10-19T17:07:23.674Z,100118.66
2022-10-19T17:10:25.243Z,100113.81
2022-10-19T17:13:26.872Z,100115.28
2022-10-19T17:16:30.227Z,100109.81
2022-10-19T17:19:32.076Z,100113.16
2022-10-19T17:22:34.176Z,100112.00
2022-10-19T17:25:35.919Z,100111.16
2022-10-19T17:28:38.963Z,100107.94
2022-10-19T17:31:41.797Z,100116.28
2022-10-19T17:34:43.419Z,100110.88
2022-10-19T17:37:45.026Z,100118.25
2022-10-19T17:40:46.962Z,100117.63
2022-10-19T17:43:51.777Z,100121.31
2022-10-19T17:46:53.481Z,100119.63
2022-10-19T17:49:55.239Z,100126.28
2022-10-19T17:52:58.199Z,100134.13
2022-10-19T17:56:02.345Z,100139.88
2022-10-19T17:59:05.027Z,100132.84
2022-10-19T18:02:09.063Z,100135.78
2022-10-19T18:05:10.803Z,100140.19
2022-10-19T18:08:12.365Z,100141.44
2022-10-19T18:11:17.352Z,100149.16
2022-10-19T18:14:19.140Z,100142.84
2022-10-19T18:17:24.100Z,100150.47
2022-10-19T18:20:28.533Z,100152.38
2022-10-19T18:23:30.307Z,100143.41
2022-10-19T18:26:33.478Z,100142.84
2022-10-19T18:29:35.004Z,100141.56
2022-10-19T18:32:37.524Z,100141.72
2022-10-19T18:35:40.260Z,100135.78
2022-10-19T18:38:42.239Z,100128.06
2022-10-19T18:41:43.855Z,100129.16
2022-10-19T18:44:47.163Z,100110.50
2022-10-19T18:47:49.686Z,100110.69
2022-10-19T18:50:52.458Z,100115.31
2022-10-19T18:53:54.911Z,100110.69
2022-10-19T18:56:56.602Z,100099.97
2022-10-19T18:59:58.430Z,100095.19
2022-10-19T19:02:59.953Z,100095.00
2022-10-19T19:06:05.599Z,100092.91
2022-10-19T19:09:09.686Z,100097.00
2022-10-19T19:12:11.501Z,100104.63
2022-10-19T19:15:13.435Z,100110.63
2022-10-19T19:18:15.055Z,100108.69
2022-10-19T19:21:28.406Z,100109.31
2022-10-19T19:24:32.127Z,100107.84
2022-10-19T19:27:34.007Z,100099.97
2022-10-19T19:30:43.809Z,100106.44
2022-10-19T19:33:47.055Z,100101.97
2022-10-19T19:36:49.086Z,100111.78
2022-10-19T19:39:51.383Z,100118.81
2022-10-19T19:42:53.001Z,100129.59
2022-10-19T19:46:06.185Z,100127.13
2022-10-19T19:49:10.879Z,100125.94
2022-10-19T19:52:12.645Z,100117.00
2022-10-19T19:55:14.445Z,100114.38
2022-10-19T19:58:16.938Z,100112.41
2022-10-19T20:01:21.020Z,100121.47
2022-10-19T20:04:22.664Z,100114.03
2022-10-19T20:07:26.957Z,100114.16
2022-10-19T20:10:28.961Z,100104.50
2022-10-19T20:13:31.592Z,100118.31
2022-10-19T20:16:34.209Z,100122.31
2022-10-19T20:19:35.721Z,100125.47
2022-10-19T20:22:37.780Z,100119.34
2022-10-19T20:25:39.231Z,100111.75
2022-10-19T20:28:40.790Z,100120.47
2022-10-19T20:31:42.334Z,100124.59
2022-10-19T20:34:43.809Z,100116.34
2022-10-19T20:37:48.780Z,100108.88
2022-10-19T20:40:50.290Z,100100.81
2022-10-19T20:43:53.719Z,100107.44
2022-10-19T20:46:55.772Z,100107.16
2022-10-19T20:49:57.382Z,100099.66
2022-10-19T20:52:58.907Z,100102.25
2022-10-19T20:56:08.732Z,100101.25
2022-10-19T20:59:22.767Z,100094.38
2022-10-19T21:02:24.516Z,100086.09
2022-10-19T21:05:26.017Z,100079.91
2022-10-19T21:08:27.450Z,100089.34
2022-10-19T21:11:31.610Z,100078.63
2022-10-19T21:14:33.081Z,100079.97
2022-10-19T21:17:35.101Z,100070.41
2022-10-19T21:20:36.489Z,100062.16
2022-10-19T21:23:38.055Z,100059.53
2022-10-19T21:26:40.093Z,100064.28
2022-10-19T21:29:41.656Z,100051.28
2022-10-19T21:32:43.198Z,100049.50
2022-10-19T21:35:44.715Z,100048.38
2022-10-19T21:38:46.660Z,100045.41
2022-10-19T21:41:48.905Z,100047.31
2022-10-19T21:44:54.011Z,100041.91
2022-10-19T21:48:02.514Z,100055.56
2022-10-19T21:51:41.979Z,100045.03
2022-10-19T21:54:43.468Z,100035.66
2022-10-19T21:57:45.835Z,100044.38
2022-10-19T22:00:48.124Z,100044.72
2022-10-19T22:03:49.780Z,100041.75
2022-10-19T22:06:51.352Z,100042.13
2022-10-19T22:09:53.011Z,100039.50
2022-10-19T22:12:55.905Z,100026.97
2022-10-19T22:16:03.203Z,100032.09
2022-10-19T22:19:05.574Z,100024.34
2022-10-19T22:22:07.041Z,100014.47
2022-10-19T22:25:08.614Z,100012.78
2022-10-19T22:28:10.045Z,100004.59
2022-10-19T22:31:12.513Z,100007.22
2022-10-19T22:34:17.420Z,100008.66
2022-10-19T22:37:18.804Z,100004.75
2022-10-19T22:40:20.295Z,100001.28
2022-10-19T22:43:21.667Z,100001.09
2022-10-19T22:46:23.036Z,99996.34
2022-10-19T22:49:24.455Z,100002.91
2022-10-19T22:52:26.049Z,100001.84
2022-10-19T22:55:28.232Z,100010.28
2022-10-19T22:58:29.508Z,100010.94
2022-10-19T23:01:31.355Z,100005.22
2022-10-19T23:04:32.867Z,99992.00
2022-10-19T23:07:34.590Z,99997.97
2022-10-19T23:10:36.257Z,100003.56
2022-10-19T23:13:37.836Z,99987.91
2022-10-19T23:16:39.208Z,99998.59
2022-10-19T23:19:40.581Z,100011.19
2022-10-19T23:22:41.987Z,100018.75
2022-10-19T23:25:43.494Z,100009.84
2022-10-19T23:28:46.699Z,100015.94
2022-10-19T23:31:49.072Z,100005.44
2022-10-19T23:34:53.642Z,100006.25
2022-10-19T23:37:55.116Z,99998.34
2022-10-19T23:40:56.659Z,99990.13
2022-10-19T23:43:58.100Z,99983.88
2022-10-19T23:46:59.544Z,99982.88
2022-10-19T23:50:00.954Z,99973.94
2022-10-19T23:53:02.411Z,99967.06
2022-10-19T23:56:09.950Z,99966.38
2022-10-19T23:59:11.603Z,99967.19
